PWSweather.com
Personal Weather Stations
Station Observations
KOHAVON11
Long Road Station, Avon, OH 44011

Long Road StationAvon, OH 44011

Lat: 41.437, Lon: -82.0477

Elevation: 686

Station Type: Davis Vantage Pro2

http://www.avon-weather.com

High Low Average
Temperature 42.3°F5.7°C 32.6°F0.3°C 36.8°F2.7°C
Dew Point 39.3°F4.1°C 26.4°F-3.1°C 31.1°F-0.5°C
Winds 20.0 mph 32.2 kmh Calm Calm 8.0 mph WSW12.9 kmh WSW
Wind Gusts 25.0 mph40.2 kmh 8.0 mph12.9 kmh 17.0 mph27.4 kmh
Humidity 89% 72% 80%
Pressure 29.80 in1009.1 mb 29.61 in1002.7 mb -
Precipitation 0.01 in0.3 mm - -
Hour Temp Dew Point Humidity Winds Wind Gusts Pressure Precip Precip Rate Daily Precip Total
12:00 AM 42.3°F5.7°C 39.3°F4.1°C 89% 4.0 mph WSW6.4 kmh WSW 8.0 mph12.9 kmh 29.62 in1003.0 mb 0.00 in0.0 mm 0.00 in0.0 mm 0.00 in0.0 mm
12:05 AM 42.2°F5.7°C 39.2°F4.0°C 89% 4.0 mph WSW6.4 kmh WSW 9.0 mph14.5 kmh 29.63 in1003.4 mb 0.00 in0.0 mm 0.00 in0.0 mm 0.00 in0.0 mm
12:10 AM 42.2°F5.7°C 39.2°F4.0°C 89% 3.0 mph WSW4.8 kmh WSW 10.0 mph16.1 kmh 29.63 in1003.4 mb 0.00 in0.0 mm 0.00 in0.0 mm 0.00 in0.0 mm
12:15 AM 42.2°F5.7°C 39.2°F4.0°C 89% Calm Calm 10.0 mph16.1 kmh 29.64 in1003.7 mb 0.00 in0.0 mm 0.00 in0.0 mm 0.00 in0.0 mm
12:20 AM 42.2°F5.7°C 39.2°F4.0°C 89% 4.0 mph WSW6.4 kmh WSW 10.0 mph16.1 kmh 29.64 in1003.7 mb 0.00 in0.0 mm 0.00 in0.0 mm 0.00 in0.0 mm
12:25 AM 42.2°F5.7°C 39.2°F4.0°C 89% 4.0 mph W6.4 kmh W 10.0 mph16.1 kmh 29.64 in1003.7 mb 0.00 in0.0 mm 0.00 in0.0 mm 0.00 in0.0 mm
12:30 AM 42.2°F5.7°C 39.2°F4.0°C 89% 4.0 mph W6.4 kmh W 10.0 mph16.1 kmh 29.64 in1003.7 mb 0.00 in0.0 mm 0.00 in0.0 mm 0.00 in0.0 mm
12:35 AM 42.2°F5.7°C 39.2°F4.0°C 89% 6.0 mph WSW9.7 kmh WSW 10.0 mph16.1 kmh 29.64 in1003.7 mb 0.00 in0.0 mm 0.00 in0.0 mm 0.00 in0.0 mm
12:40 AM 42.2°F5.7°C 39.2°F4.0°C 89% 5.0 mph WSW8.0 kmh WSW 8.0 mph12.9 kmh 29.64 in1003.7 mb 0.00 in0.0 mm 0.00 in0.0 mm 0.00 in0.0 mm
12:45 AM 42.2°F5.7°C 39.2°F4.0°C 89% 5.0 mph WSW8.0 kmh WSW 8.0 mph12.9 kmh 29.65 in1004.1 mb 0.00 in0.0 mm 0.00 in0.0 mm 0.00 in0.0 mm
12:50 AM 42.2°F5.7°C 39.2°F4.0°C 89% 3.0 mph W4.8 kmh W 8.0 mph12.9 kmh 29.63 in1003.4 mb 0.00 in0.0 mm 0.00 in0.0 mm 0.00 in0.0 mm
12:55 AM 42.3°F5.7°C 39.3°F4.1°C 89% Calm Calm 8.0 mph12.9 kmh 29.63 in1003.4 mb 0.00 in0.0 mm 0.00 in0.0 mm 0.00 in0.0 mm
01:00 AM 42.2°F5.7°C 39.2°F4.0°C 89% 4.0 mph W6.4 kmh W 11.0 mph17.7 kmh 29.62 in1003.0 mb 0.00 in0.0 mm 0.00 in0.0 mm 0.00 in0.0 mm
01:05 AM 42.2°F5.7°C 39.2°F4.0°C 89% 4.0 mph WNW6.4 kmh WNW 11.0 mph17.7 kmh 29.62 in1003.0 mb 0.00 in0.0 mm 0.00 in0.0 mm 0.00 in0.0 mm
01:10 AM 42.2°F5.7°C 39.2°F4.0°C 89% 2.0 mph W3.2 kmh W 11.0 mph17.7 kmh 29.62 in1003.0 mb 0.00 in0.0 mm 0.00 in0.0 mm 0.00 in0.0 mm
01:15 AM 42.2°F5.7°C 39.2°F4.0°C 89% 9.0 mph WSW14.5 kmh WSW 11.0 mph17.7 kmh 29.62 in1003.0 mb 0.00 in0.0 mm 0.00 in0.0 mm 0.00 in0.0 mm
01:20 AM 42.2°F5.7°C 39.2°F4.0°C 89% 3.0 mph W4.8 kmh W 9.0 mph14.5 kmh 29.62 in1003.0 mb 0.00 in0.0 mm 0.00 in0.0 mm 0.00 in0.0 mm
01:25 AM 42.1°F5.6°C 39.1°F3.9°C 89% 3.0 mph W4.8 kmh W 10.0 mph16.1 kmh 29.62 in1003.0 mb 0.00 in0.0 mm 0.00 in0.0 mm 0.00 in0.0 mm
01:30 AM 42.1°F5.6°C 39.1°F3.9°C 89% 2.0 mph W3.2 kmh W 10.0 mph16.1 kmh 29.62 in1003.0 mb 0.00 in0.0 mm 0.00 in0.0 mm 0.00 in0.0 mm
01:35 AM 42.1°F5.6°C 39.1°F3.9°C 89% 6.0 mph WSW9.7 kmh WSW 10.0 mph16.1 kmh 29.62 in1003.0 mb 0.00 in0.0 mm 0.00 in0.0 mm 0.00 in0.0 mm
01:40 AM 42.1°F5.6°C 38.8°F3.8°C 88% 4.0 mph NW6.4 kmh NW 10.0 mph16.1 kmh 29.62 in1003.0 mb 0.00 in0.0 mm 0.00 in0.0 mm 0.00 in0.0 mm
01:45 AM 42.0°F5.6°C 38.7°F3.7°C 88% 5.0 mph WSW8.0 kmh WSW 10.0 mph16.1 kmh 29.63 in1003.4 mb 0.00 in0.0 mm 0.00 in0.0 mm 0.00 in0.0 mm
01:50 AM 42.0°F5.6°C 38.7°F3.7°C 88% 4.0 mph W6.4 kmh W 11.0 mph17.7 kmh 29.62 in1003.0 mb 0.00 in0.0 mm 0.00 in0.0 mm 0.00 in0.0 mm
01:55 AM 41.9°F5.5°C 38.6°F3.7°C 88% 10.0 mph NW16.1 kmh NW 14.0 mph22.5 kmh 29.62 in1003.0 mb 0.00 in0.0 mm 0.00 in0.0 mm 0.00 in0.0 mm
02:00 AM 41.9°F5.5°C 38.6°F3.7°C 88% 6.0 mph W9.7 kmh W 15.0 mph24.1 kmh 29.63 in1003.4 mb 0.00 in0.0 mm 0.00 in0.0 mm 0.00 in0.0 mm
02:05 AM 41.9°F5.5°C 38.6°F3.7°C 88% 10.0 mph WSW16.1 kmh WSW 15.0 mph24.1 kmh 29.63 in1003.4 mb 0.00 in0.0 mm 0.00 in0.0 mm 0.00 in0.0 mm
02:10 AM 41.9°F5.5°C 38.6°F3.7°C 88% 8.0 mph W12.9 kmh W 15.0 mph24.1 kmh 29.63 in1003.4 mb 0.00 in0.0 mm 0.00 in0.0 mm 0.00 in0.0 mm
02:15 AM 41.8°F5.4°C 38.5°F3.6°C 88% 2.0 mph W3.2 kmh W 15.0 mph24.1 kmh 29.62 in1003.0 mb 0.00 in0.0 mm 0.00 in0.0 mm 0.00 in0.0 mm
02:20 AM 41.8°F5.4°C 38.5°F3.6°C 88% 4.0 mph WNW6.4 kmh WNW 14.0 mph22.5 kmh 29.61 in1002.7 mb 0.00 in0.0 mm 0.00 in0.0 mm 0.00 in0.0 mm
02:25 AM 41.7°F5.4°C 38.4°F3.6°C 88% 5.0 mph WNW8.0 kmh WNW 14.0 mph22.5 kmh 29.61 in1002.7 mb 0.00 in0.0 mm 0.00 in0.0 mm 0.00 in0.0 mm
02:30 AM 41.7°F5.4°C 38.4°F3.6°C 88% 5.0 mph W8.0 kmh W 10.0 mph16.1 kmh 29.62 in1003.0 mb 0.00 in0.0 mm 0.00 in0.0 mm 0.00 in0.0 mm
02:35 AM 41.7°F5.4°C 38.7°F3.7°C 89% 4.0 mph WSW6.4 kmh WSW 10.0 mph16.1 kmh 29.62 in1003.0 mb 0.00 in0.0 mm 0.00 in0.0 mm 0.00 in0.0 mm
02:40 AM 41.7°F5.4°C 38.7°F3.7°C 89% 3.0 mph WNW4.8 kmh WNW 8.0 mph12.9 kmh 29.62 in1003.0 mb 0.00 in0.0 mm 0.00 in0.0 mm 0.00 in0.0 mm
02:45 AM 41.6°F5.3°C 38.6°F3.7°C 89% 3.0 mph WNW4.8 kmh WNW 10.0 mph16.1 kmh 29.61 in1002.7 mb 0.00 in0.0 mm 0.00 in0.0 mm 0.00 in0.0 mm
02:50 AM 41.6°F5.3°C 38.6°F3.7°C 89% 3.0 mph W4.8 kmh W 10.0 mph16.1 kmh 29.61 in1002.7 mb 0.00 in0.0 mm 0.00 in0.0 mm 0.00 in0.0 mm
02:55 AM 41.6°F5.3°C 38.6°F3.7°C 89% 5.0 mph WSW8.0 kmh WSW 10.0 mph16.1 kmh 29.61 in1002.7 mb 0.00 in0.0 mm 0.00 in0.0 mm 0.00 in0.0 mm
03:00 AM 41.6°F5.3°C 38.6°F3.7°C 89% 5.0 mph W8.0 kmh W 10.0 mph16.1 kmh 29.62 in1003.0 mb 0.00 in0.0 mm 0.00 in0.0 mm 0.00 in0.0 mm
03:05 AM 41.6°F5.3°C 38.6°F3.7°C 89% 4.0 mph W6.4 kmh W 9.0 mph14.5 kmh 29.61 in1002.7 mb 0.00 in0.0 mm 0.00 in0.0 mm 0.00 in0.0 mm
03:10 AM 41.6°F5.3°C 38.6°F3.7°C 89% 2.0 mph W3.2 kmh W 9.0 mph14.5 kmh 29.61 in1002.7 mb 0.00 in0.0 mm 0.00 in0.0 mm 0.01 in0.3 mm
03:15 AM 41.6°F5.3°C 38.6°F3.7°C 89% 7.0 mph WSW11.3 kmh WSW 8.0 mph12.9 kmh 29.62 in1003.0 mb 0.00 in0.0 mm 0.00 in0.0 mm 0.01 in0.3 mm
03:20 AM 41.6°F5.3°C 38.6°F3.7°C 89% 5.0 mph WSW8.0 kmh WSW 13.0 mph20.9 kmh 29.62 in1003.0 mb 0.00 in0.0 mm 0.00 in0.0 mm 0.01 in0.3 mm
03:25 AM 41.7°F5.4°C 38.7°F3.7°C 89% 6.0 mph WSW9.7 kmh WSW 13.0 mph20.9 kmh 29.62 in1003.0 mb 0.00 in0.0 mm 0.00 in0.0 mm 0.01 in0.3 mm
03:30 AM 41.7°F5.4°C 38.7°F3.7°C 89% 6.0 mph W9.7 kmh W 13.0 mph20.9 kmh 29.61 in1002.7 mb 0.00 in0.0 mm 0.00 in0.0 mm 0.01 in0.3 mm
03:35 AM 41.6°F5.3°C 38.6°F3.7°C 89% 3.0 mph WSW4.8 kmh WSW 13.0 mph20.9 kmh 29.61 in1002.7 mb 0.00 in0.0 mm 0.00 in0.0 mm 0.01 in0.3 mm
03:40 AM 41.6°F5.3°C 38.6°F3.7°C 89% 4.0 mph W6.4 kmh W 10.0 mph16.1 kmh 29.61 in1002.7 mb 0.00 in0.0 mm 0.00 in0.0 mm 0.01 in0.3 mm
03:45 AM 41.6°F5.3°C 38.6°F3.7°C 89% 3.0 mph W4.8 kmh W 10.0 mph16.1 kmh 29.62 in1003.0 mb 0.00 in0.0 mm 0.00 in0.0 mm 0.01 in0.3 mm
03:50 AM 41.6°F5.3°C 38.6°F3.7°C 89% 7.0 mph WSW11.3 kmh WSW 9.0 mph14.5 kmh 29.62 in1003.0 mb 0.00 in0.0 mm 0.00 in0.0 mm 0.01 in0.3 mm
03:55 AM 41.6°F5.3°C 38.6°F3.7°C 89% 6.0 mph WSW9.7 kmh WSW 14.0 mph22.5 kmh 29.62 in1003.0 mb 0.00 in0.0 mm 0.00 in0.0 mm 0.01 in0.3 mm
04:00 AM 41.4°F5.2°C 38.4°F3.6°C 89% 4.0 mph W6.4 kmh W 14.0 mph22.5 kmh 29.61 in1002.7 mb 0.00 in0.0 mm 0.00 in0.0 mm 0.01 in0.3 mm
04:05 AM 41.3°F5.2°C 38.3°F3.5°C 89% 6.0 mph WSW9.7 kmh WSW 14.0 mph22.5 kmh 29.62 in1003.0 mb 0.00 in0.0 mm 0.00 in0.0 mm 0.01 in0.3 mm
04:10 AM 41.3°F5.2°C 38.3°F3.5°C 89% 5.0 mph W8.0 kmh W 14.0 mph22.5 kmh 29.62 in1003.0 mb 0.00 in0.0 mm 0.00 in0.0 mm 0.01 in0.3 mm
04:15 AM 41.2°F5.1°C 38.2°F3.4°C 89% 6.0 mph W9.7 kmh W 14.0 mph22.5 kmh 29.62 in1003.0 mb 0.00 in0.0 mm 0.00 in0.0 mm 0.01 in0.3 mm
04:20 AM 41.2°F5.1°C 38.2°F3.4°C 89% 4.0 mph W6.4 kmh W 14.0 mph22.5 kmh 29.62 in1003.0 mb 0.00 in0.0 mm 0.00 in0.0 mm 0.01 in0.3 mm
04:25 AM 41.1°F5.1°C 38.1°F3.4°C 89% 8.0 mph W12.9 kmh W 14.0 mph22.5 kmh 29.62 in1003.0 mb 0.00 in0.0 mm 0.00 in0.0 mm 0.01 in0.3 mm
04:30 AM 41.1°F5.1°C 37.8°F3.2°C 88% 5.0 mph WNW8.0 kmh WNW 14.0 mph22.5 kmh 29.62 in1003.0 mb 0.00 in0.0 mm 0.00 in0.0 mm 0.01 in0.3 mm
04:35 AM 41.0°F5.0°C 37.7°F3.2°C 88% 6.0 mph WNW9.7 kmh WNW 14.0 mph22.5 kmh 29.62 in1003.0 mb 0.00 in0.0 mm 0.00 in0.0 mm 0.01 in0.3 mm
04:40 AM 40.9°F4.9°C 37.6°F3.1°C 88% 7.0 mph NW11.3 kmh NW 15.0 mph24.1 kmh 29.62 in1003.0 mb 0.00 in0.0 mm 0.00 in0.0 mm 0.01 in0.3 mm
04:45 AM 40.8°F4.9°C 37.5°F3.1°C 88% 4.0 mph W6.4 kmh W 15.0 mph24.1 kmh 29.61 in1002.7 mb 0.00 in0.0 mm 0.00 in0.0 mm 0.01 in0.3 mm
04:50 AM 40.7°F4.8°C 37.1°F2.8°C 87% 5.0 mph WSW8.0 kmh WSW 15.0 mph24.1 kmh 29.61 in1002.7 mb 0.00 in0.0 mm 0.00 in0.0 mm 0.01 in0.3 mm
04:55 AM 40.6°F4.8°C 37.0°F2.8°C 87% 6.0 mph W9.7 kmh W 15.0 mph24.1 kmh 29.62 in1003.0 mb 0.00 in0.0 mm 0.00 in0.0 mm 0.01 in0.3 mm
05:00 AM 40.5°F4.7°C 36.9°F2.7°C 87% 6.0 mph W9.7 kmh W 14.0 mph22.5 kmh 29.62 in1003.0 mb 0.00 in0.0 mm 0.00 in0.0 mm 0.01 in0.3 mm
05:05 AM 40.4°F4.7°C 36.5°F2.5°C 86% 6.0 mph WSW9.7 kmh WSW 16.0 mph25.7 kmh 29.62 in1003.0 mb 0.00 in0.0 mm 0.00 in0.0 mm 0.01 in0.3 mm
05:10 AM 40.2°F4.6°C 36.3°F2.4°C 86% 8.0 mph WSW12.9 kmh WSW 16.0 mph25.7 kmh 29.62 in1003.0 mb 0.00 in0.0 mm 0.00 in0.0 mm 0.01 in0.3 mm
05:15 AM 40.1°F4.5°C 36.2°F2.3°C 86% 5.0 mph WSW8.0 kmh WSW 16.0 mph25.7 kmh 29.62 in1003.0 mb 0.00 in0.0 mm 0.00 in0.0 mm 0.01 in0.3 mm
05:20 AM 40.0°F4.4°C 35.8°F2.1°C 85% 5.0 mph WSW8.0 kmh WSW 16.0 mph25.7 kmh 29.62 in1003.0 mb 0.00 in0.0 mm 0.00 in0.0 mm 0.01 in0.3 mm
05:25 AM 39.8°F4.3°C 35.7°F2.1°C 85% 3.0 mph W4.8 kmh W 12.0 mph19.3 kmh 29.62 in1003.0 mb 0.00 in0.0 mm 0.00 in0.0 mm 0.01 in0.3 mm
05:30 AM 39.6°F4.2°C 35.5°F1.9°C 85% 5.0 mph W8.0 kmh W 12.0 mph19.3 kmh 29.62 in1003.0 mb 0.00 in0.0 mm 0.00 in0.0 mm 0.01 in0.3 mm
05:35 AM 39.5°F4.2°C 35.4°F1.9°C 85% 4.0 mph WSW6.4 kmh WSW 12.0 mph19.3 kmh 29.63 in1003.4 mb 0.00 in0.0 mm 0.00 in0.0 mm 0.01 in0.3 mm
05:40 AM 39.2°F4.0°C 34.8°F1.6°C 84% 10.0 mph SW16.1 kmh SW 14.0 mph22.5 kmh 29.63 in1003.4 mb 0.00 in0.0 mm 0.00 in0.0 mm 0.01 in0.3 mm
05:45 AM 39.0°F3.9°C 34.6°F1.4°C 84% 5.0 mph WSW8.0 kmh WSW 14.0 mph22.5 kmh 29.63 in1003.4 mb 0.00 in0.0 mm 0.00 in0.0 mm 0.01 in0.3 mm
05:50 AM 38.9°F3.8°C 34.5°F1.4°C 84% 8.0 mph WSW12.9 kmh WSW 14.0 mph22.5 kmh 29.63 in1003.4 mb 0.00 in0.0 mm 0.00 in0.0 mm 0.01 in0.3 mm
05:55 AM 38.6°F3.7°C 33.9°F1.1°C 83% 9.0 mph WSW14.5 kmh WSW 20.0 mph32.2 kmh 29.63 in1003.4 mb 0.00 in0.0 mm 0.00 in0.0 mm 0.01 in0.3 mm
06:00 AM 38.3°F3.5°C 33.0°F0.6°C 81% 13.0 mph SW20.9 kmh SW 21.0 mph33.8 kmh 29.63 in1003.4 mb 0.00 in0.0 mm 0.00 in0.0 mm 0.01 in0.3 mm
06:05 AM 38.0°F3.3°C 32.0°F0.0°C 79% 12.0 mph WNW19.3 kmh WNW 21.0 mph33.8 kmh 29.63 in1003.4 mb 0.00 in0.0 mm 0.00 in0.0 mm 0.01 in0.3 mm
06:10 AM 37.7°F3.2°C 31.4°F-0.3°C 78% 13.0 mph W20.9 kmh W 21.0 mph33.8 kmh 29.63 in1003.4 mb 0.00 in0.0 mm 0.00 in0.0 mm 0.01 in0.3 mm
06:15 AM 37.4°F3.0°C 31.1°F-0.5°C 78% 12.0 mph WSW19.3 kmh WSW 21.0 mph33.8 kmh 29.64 in1003.7 mb 0.00 in0.0 mm 0.00 in0.0 mm 0.01 in0.3 mm
06:20 AM 37.3°F2.9°C 31.0°F-0.6°C 78% 10.0 mph WSW16.1 kmh WSW 20.0 mph32.2 kmh 29.64 in1003.7 mb 0.00 in0.0 mm 0.00 in0.0 mm 0.01 in0.3 mm
06:25 AM 37.1°F2.8°C 30.8°F-0.7°C 78% 12.0 mph WSW19.3 kmh WSW 20.0 mph32.2 kmh 29.64 in1003.7 mb 0.00 in0.0 mm 0.00 in0.0 mm 0.01 in0.3 mm
06:30 AM 37.0°F2.8°C 30.7°F-0.7°C 78% 14.0 mph W22.5 kmh W 18.0 mph29.0 kmh 29.64 in1003.7 mb 0.00 in0.0 mm 0.00 in0.0 mm 0.01 in0.3 mm
06:35 AM 36.9°F2.7°C 31.0°F-0.6°C 79% 16.0 mph WSW25.7 kmh WSW 23.0 mph37.0 kmh 29.65 in1004.1 mb 0.00 in0.0 mm 0.00 in0.0 mm 0.01 in0.3 mm
06:40 AM 36.8°F2.7°C 30.9°F-0.6°C 79% 7.0 mph SW11.3 kmh SW 24.0 mph38.6 kmh 29.65 in1004.1 mb 0.00 in0.0 mm 0.00 in0.0 mm 0.01 in0.3 mm
06:45 AM 36.8°F2.7°C 31.2°F-0.4°C 80% 8.0 mph W12.9 kmh W 24.0 mph38.6 kmh 29.65 in1004.1 mb 0.00 in0.0 mm 0.00 in0.0 mm 0.01 in0.3 mm
06:50 AM 36.7°F2.6°C 31.1°F-0.5°C 80% 12.0 mph SW19.3 kmh SW 24.0 mph38.6 kmh 29.65 in1004.1 mb 0.00 in0.0 mm 0.00 in0.0 mm 0.01 in0.3 mm
06:55 AM 36.6°F2.6°C 31.0°F-0.6°C 80% 8.0 mph W12.9 kmh W 24.0 mph38.6 kmh 29.65 in1004.1 mb 0.00 in0.0 mm 0.00 in0.0 mm 0.01 in0.3 mm
07:00 AM 36.6°F2.6°C 31.0°F-0.6°C 80% 7.0 mph WSW11.3 kmh WSW 16.0 mph25.7 kmh 29.65 in1004.1 mb 0.00 in0.0 mm 0.00 in0.0 mm 0.01 in0.3 mm
07:05 AM 36.6°F2.6°C 31.3°F-0.4°C 81% 9.0 mph WNW14.5 kmh WNW 17.0 mph27.4 kmh 29.65 in1004.1 mb 0.00 in0.0 mm 0.00 in0.0 mm 0.01 in0.3 mm
07:10 AM 36.5°F2.5°C 31.2°F-0.4°C 81% 6.0 mph WSW9.7 kmh WSW 17.0 mph27.4 kmh 29.65 in1004.1 mb 0.00 in0.0 mm 0.00 in0.0 mm 0.01 in0.3 mm
07:15 AM 36.5°F2.5°C 31.2°F-0.4°C 81% 6.0 mph WSW9.7 kmh WSW 17.0 mph27.4 kmh 29.65 in1004.1 mb 0.00 in0.0 mm 0.00 in0.0 mm 0.01 in0.3 mm
07:20 AM 36.6°F2.6°C 31.3°F-0.4°C 81% 7.0 mph WSW11.3 kmh WSW 17.0 mph27.4 kmh 29.65 in1004.1 mb 0.00 in0.0 mm 0.00 in0.0 mm 0.01 in0.3 mm
07:25 AM 36.8°F2.7°C 31.5°F-0.3°C 81% 10.0 mph WSW16.1 kmh WSW 15.0 mph24.1 kmh 29.66 in1004.4 mb 0.00 in0.0 mm 0.00 in0.0 mm 0.01 in0.3 mm
07:30 AM 36.9°F2.7°C 31.6°F-0.2°C 81% 8.0 mph WSW12.9 kmh WSW 15.0 mph24.1 kmh 29.66 in1004.4 mb 0.00 in0.0 mm 0.00 in0.0 mm 0.01 in0.3 mm
07:35 AM 36.9°F2.7°C 31.6°F-0.2°C 81% 4.0 mph SW6.4 kmh SW 11.0 mph17.7 kmh 29.66 in1004.4 mb 0.00 in0.0 mm 0.00 in0.0 mm 0.01 in0.3 mm
07:40 AM 36.9°F2.7°C 31.6°F-0.2°C 81% 4.0 mph WSW6.4 kmh WSW 11.0 mph17.7 kmh 29.66 in1004.4 mb 0.00 in0.0 mm 0.00 in0.0 mm 0.01 in0.3 mm
07:45 AM 36.9°F2.7°C 31.6°F-0.2°C 81% 7.0 mph WSW11.3 kmh WSW 10.0 mph16.1 kmh 29.67 in1004.7 mb 0.00 in0.0 mm 0.00 in0.0 mm 0.01 in0.3 mm
07:50 AM 37.0°F2.8°C 31.4°F-0.3°C 80% 5.0 mph WSW8.0 kmh WSW 12.0 mph19.3 kmh 29.67 in1004.7 mb 0.00 in0.0 mm 0.00 in0.0 mm 0.01 in0.3 mm
07:55 AM 37.0°F2.8°C 31.4°F-0.3°C 80% 10.0 mph WSW16.1 kmh WSW 12.0 mph19.3 kmh 29.67 in1004.7 mb 0.00 in0.0 mm 0.00 in0.0 mm 0.01 in0.3 mm
08:00 AM 37.1°F2.8°C 31.5°F-0.3°C 80% 5.0 mph WSW8.0 kmh WSW 12.0 mph19.3 kmh 29.67 in1004.7 mb 0.00 in0.0 mm 0.00 in0.0 mm 0.01 in0.3 mm
08:05 AM 37.2°F2.9°C 31.6°F-0.2°C 80% 7.0 mph WSW11.3 kmh WSW 13.0 mph20.9 kmh 29.67 in1004.7 mb 0.00 in0.0 mm 0.00 in0.0 mm 0.01 in0.3 mm
08:10 AM 37.4°F3.0°C 31.8°F-0.1°C 80% 7.0 mph WSW11.3 kmh WSW 13.0 mph20.9 kmh 29.67 in1004.7 mb 0.00 in0.0 mm 0.00 in0.0 mm 0.01 in0.3 mm
08:15 AM 37.4°F3.0°C 31.4°F-0.3°C 79% 9.0 mph WSW14.5 kmh WSW 13.0 mph20.9 kmh 29.66 in1004.4 mb 0.00 in0.0 mm 0.00 in0.0 mm 0.01 in0.3 mm
08:20 AM 37.6°F3.1°C 31.6°F-0.2°C 79% 7.0 mph WSW11.3 kmh WSW 13.0 mph20.9 kmh 29.67 in1004.7 mb 0.00 in0.0 mm 0.00 in0.0 mm 0.01 in0.3 mm
08:25 AM 37.7°F3.2°C 31.7°F-0.2°C 79% 10.0 mph WSW16.1 kmh WSW 17.0 mph27.4 kmh 29.66 in1004.4 mb 0.00 in0.0 mm 0.00 in0.0 mm 0.01 in0.3 mm
08:30 AM 37.7°F3.2°C 31.4°F-0.3°C 78% 14.0 mph WSW22.5 kmh WSW 17.0 mph27.4 kmh 29.66 in1004.4 mb 0.00 in0.0 mm 0.00 in0.0 mm 0.01 in0.3 mm
08:35 AM 37.8°F3.2°C 31.5°F-0.3°C 78% 9.0 mph WNW14.5 kmh WNW 17.0 mph27.4 kmh 29.67 in1004.7 mb 0.00 in0.0 mm 0.00 in0.0 mm 0.01 in0.3 mm
08:40 AM 37.8°F3.2°C 31.5°F-0.3°C 78% 5.0 mph W8.0 kmh W 17.0 mph27.4 kmh 29.66 in1004.4 mb 0.00 in0.0 mm 0.00 in0.0 mm 0.01 in0.3 mm
08:45 AM 37.9°F3.3°C 31.6°F-0.2°C 78% 8.0 mph SW12.9 kmh SW 16.0 mph25.7 kmh 29.66 in1004.4 mb 0.00 in0.0 mm 0.00 in0.0 mm 0.01 in0.3 mm
08:50 AM 37.9°F3.3°C 31.6°F-0.2°C 78% 12.0 mph WSW19.3 kmh WSW 17.0 mph27.4 kmh 29.66 in1004.4 mb 0.00 in0.0 mm 0.00 in0.0 mm 0.01 in0.3 mm
08:55 AM 38.0°F3.3°C 31.7°F-0.2°C 78% 8.0 mph WSW12.9 kmh WSW 17.0 mph27.4 kmh 29.67 in1004.7 mb 0.00 in0.0 mm 0.00 in0.0 mm 0.01 in0.3 mm
09:00 AM 37.9°F3.3°C 31.6°F-0.2°C 78% 8.0 mph WSW12.9 kmh WSW 17.0 mph27.4 kmh 29.67 in1004.7 mb 0.00 in0.0 mm 0.00 in0.0 mm 0.01 in0.3 mm
09:05 AM 37.8°F3.2°C 31.5°F-0.3°C 78% 6.0 mph SW9.7 kmh SW 17.0 mph27.4 kmh 29.67 in1004.7 mb 0.00 in0.0 mm 0.00 in0.0 mm 0.01 in0.3 mm
09:10 AM 37.8°F3.2°C 31.5°F-0.3°C 78% 10.0 mph W16.1 kmh W 19.0 mph30.6 kmh 29.67 in1004.7 mb 0.00 in0.0 mm 0.00 in0.0 mm 0.01 in0.3 mm
09:15 AM 37.7°F3.2°C 31.1°F-0.5°C 77% 9.0 mph WSW14.5 kmh WSW 21.0 mph33.8 kmh 29.67 in1004.7 mb 0.00 in0.0 mm 0.00 in0.0 mm 0.01 in0.3 mm
09:20 AM 37.6°F3.1°C 31.0°F-0.6°C 77% 10.0 mph WSW16.1 kmh WSW 21.0 mph33.8 kmh 29.67 in1004.7 mb 0.00 in0.0 mm 0.00 in0.0 mm 0.01 in0.3 mm
09:25 AM 37.4°F3.0°C 30.5°F-0.8°C 76% 13.0 mph WSW20.9 kmh WSW 21.0 mph33.8 kmh 29.67 in1004.7 mb 0.00 in0.0 mm 0.00 in0.0 mm 0.01 in0.3 mm
09:30 AM 37.3°F2.9°C 31.0°F-0.6°C 78% 6.0 mph WSW9.7 kmh WSW 21.0 mph33.8 kmh 29.67 in1004.7 mb 0.00 in0.0 mm 0.00 in0.0 mm 0.01 in0.3 mm
09:35 AM 37.2°F2.9°C 30.9°F-0.6°C 78% 7.0 mph SW11.3 kmh SW 16.0 mph25.7 kmh 29.67 in1004.7 mb 0.00 in0.0 mm 0.00 in0.0 mm 0.01 in0.3 mm
09:40 AM 37.1°F2.8°C 31.2°F-0.4°C 79% 9.0 mph W14.5 kmh W 16.0 mph25.7 kmh 29.68 in1005.1 mb 0.00 in0.0 mm 0.00 in0.0 mm 0.01 in0.3 mm
09:45 AM 37.1°F2.8°C 31.2°F-0.4°C 79% 6.0 mph SW9.7 kmh SW 14.0 mph22.5 kmh 29.67 in1004.7 mb 0.00 in0.0 mm 0.00 in0.0 mm 0.01 in0.3 mm
09:50 AM 37.1°F2.8°C 31.5°F-0.3°C 80% 7.0 mph WSW11.3 kmh WSW 15.0 mph24.1 kmh 29.67 in1004.7 mb 0.00 in0.0 mm 0.00 in0.0 mm 0.01 in0.3 mm
09:55 AM 37.3°F2.9°C 31.7°F-0.2°C 80% 12.0 mph WSW19.3 kmh WSW 15.0 mph24.1 kmh 29.67 in1004.7 mb 0.00 in0.0 mm 0.00 in0.0 mm 0.01 in0.3 mm
10:00 AM 37.3°F2.9°C 32.0°F0.0°C 81% 4.0 mph WSW6.4 kmh WSW 17.0 mph27.4 kmh 29.68 in1005.1 mb 0.00 in0.0 mm 0.00 in0.0 mm 0.01 in0.3 mm
10:05 AM 37.3°F2.9°C 32.3°F0.2°C 82% 8.0 mph SW12.9 kmh SW 17.0 mph27.4 kmh 29.68 in1005.1 mb 0.00 in0.0 mm 0.00 in0.0 mm 0.01 in0.3 mm
10:10 AM 37.0°F2.8°C 31.7°F-0.2°C 81% 6.0 mph SW9.7 kmh SW 17.0 mph27.4 kmh 29.68 in1005.1 mb 0.00 in0.0 mm 0.00 in0.0 mm 0.01 in0.3 mm
10:15 AM 36.9°F2.7°C 31.9°F-0.1°C 82% 6.0 mph SW9.7 kmh SW 17.0 mph27.4 kmh 29.68 in1005.1 mb 0.00 in0.0 mm 0.00 in0.0 mm 0.01 in0.3 mm
10:20 AM 36.7°F2.6°C 31.7°F-0.2°C 82% 7.0 mph SW11.3 kmh SW 16.0 mph25.7 kmh 29.69 in1005.4 mb 0.00 in0.0 mm 0.00 in0.0 mm 0.01 in0.3 mm
10:25 AM 36.5°F2.5°C 31.8°F-0.1°C 83% 14.0 mph WSW22.5 kmh WSW 17.0 mph27.4 kmh 29.69 in1005.4 mb 0.00 in0.0 mm 0.00 in0.0 mm 0.01 in0.3 mm
10:30 AM 36.2°F2.3°C 31.5°F-0.3°C 83% 9.0 mph WSW14.5 kmh WSW 17.0 mph27.4 kmh 29.69 in1005.4 mb 0.00 in0.0 mm 0.00 in0.0 mm 0.01 in0.3 mm
10:35 AM 36.2°F2.3°C 31.5°F-0.3°C 83% 6.0 mph SSW9.7 kmh SSW 17.0 mph27.4 kmh 29.68 in1005.1 mb 0.00 in0.0 mm 0.00 in0.0 mm 0.01 in0.3 mm
10:40 AM 36.1°F2.3°C 31.4°F-0.3°C 83% 8.0 mph SW12.9 kmh SW 17.0 mph27.4 kmh 29.68 in1005.1 mb 0.00 in0.0 mm 0.00 in0.0 mm 0.01 in0.3 mm
10:45 AM 36.1°F2.3°C 31.7°F-0.2°C 84% 4.0 mph WSW6.4 kmh WSW 17.0 mph27.4 kmh 29.68 in1005.1 mb 0.00 in0.0 mm 0.00 in0.0 mm 0.01 in0.3 mm
10:50 AM 36.1°F2.3°C 31.7°F-0.2°C 84% 7.0 mph WSW11.3 kmh WSW 17.0 mph27.4 kmh 29.68 in1005.1 mb 0.00 in0.0 mm 0.00 in0.0 mm 0.01 in0.3 mm
10:55 AM 36.3°F2.4°C 31.9°F-0.1°C 84% 4.0 mph WSW6.4 kmh WSW 15.0 mph24.1 kmh 29.68 in1005.1 mb 0.00 in0.0 mm 0.00 in0.0 mm 0.01 in0.3 mm
11:00 AM 36.5°F2.5°C 32.1°F0.1°C 84% 4.0 mph SW6.4 kmh SW 15.0 mph24.1 kmh 29.68 in1005.1 mb 0.00 in0.0 mm 0.00 in0.0 mm 0.01 in0.3 mm
11:05 AM 36.5°F2.5°C 32.1°F0.1°C 84% 6.0 mph SW9.7 kmh SW 16.0 mph25.7 kmh 29.68 in1005.1 mb 0.00 in0.0 mm 0.00 in0.0 mm 0.01 in0.3 mm
11:10 AM 36.2°F2.3°C 31.8°F-0.1°C 84% 7.0 mph SSW11.3 kmh SSW 16.0 mph25.7 kmh 29.68 in1005.1 mb 0.00 in0.0 mm 0.00 in0.0 mm 0.01 in0.3 mm
11:15 AM 35.9°F2.2°C 31.5°F-0.3°C 84% 7.0 mph WSW11.3 kmh WSW 16.0 mph25.7 kmh 29.68 in1005.1 mb 0.00 in0.0 mm 0.00 in0.0 mm 0.01 in0.3 mm
11:20 AM 35.6°F2.0°C 31.2°F-0.4°C 84% 11.0 mph SW17.7 kmh SW 17.0 mph27.4 kmh 29.68 in1005.1 mb 0.00 in0.0 mm 0.00 in0.0 mm 0.01 in0.3 mm
11:25 AM 35.5°F1.9°C 31.1°F-0.5°C 84% 6.0 mph WSW9.7 kmh WSW 17.0 mph27.4 kmh 29.68 in1005.1 mb 0.00 in0.0 mm 0.00 in0.0 mm 0.01 in0.3 mm
11:30 AM 35.5°F1.9°C 31.1°F-0.5°C 84% 5.0 mph W8.0 kmh W 17.0 mph27.4 kmh 29.68 in1005.1 mb 0.00 in0.0 mm 0.00 in0.0 mm 0.01 in0.3 mm
11:35 AM 35.5°F1.9°C 31.1°F-0.5°C 84% 5.0 mph W8.0 kmh W 19.0 mph30.6 kmh 29.68 in1005.1 mb 0.00 in0.0 mm 0.00 in0.0 mm 0.01 in0.3 mm
11:40 AM 35.4°F1.9°C 31.0°F-0.6°C 84% 12.0 mph SW19.3 kmh SW 19.0 mph30.6 kmh 29.68 in1005.1 mb 0.00 in0.0 mm 0.00 in0.0 mm 0.01 in0.3 mm
11:45 AM 35.3°F1.8°C 31.0°F-0.6°C 84% 11.0 mph W17.7 kmh W 19.0 mph30.6 kmh 29.68 in1005.1 mb 0.00 in0.0 mm 0.00 in0.0 mm 0.01 in0.3 mm
11:50 AM 35.2°F1.8°C 30.9°F-0.6°C 84% 11.0 mph WSW17.7 kmh WSW 21.0 mph33.8 kmh 29.68 in1005.1 mb 0.00 in0.0 mm 0.00 in0.0 mm 0.01 in0.3 mm
11:55 AM 35.2°F1.8°C 30.6°F-0.8°C 83% 8.0 mph WSW12.9 kmh WSW 22.0 mph35.4 kmh 29.68 in1005.1 mb 0.00 in0.0 mm 0.00 in0.0 mm 0.01 in0.3 mm
12:00 PM 35.5°F1.9°C 30.5°F-0.8°C 82% 15.0 mph W24.1 kmh W 22.0 mph35.4 kmh 29.68 in1005.1 mb 0.00 in0.0 mm 0.00 in0.0 mm 0.01 in0.3 mm
12:05 PM 35.8°F2.1°C 30.8°F-0.7°C 82% 10.0 mph WSW16.1 kmh WSW 22.0 mph35.4 kmh 29.68 in1005.1 mb 0.00 in0.0 mm 0.00 in0.0 mm 0.01 in0.3 mm
12:10 PM 35.9°F2.2°C 30.6°F-0.8°C 81% 11.0 mph WSW17.7 kmh WSW 22.0 mph35.4 kmh 29.68 in1005.1 mb 0.00 in0.0 mm 0.00 in0.0 mm 0.01 in0.3 mm
12:15 PM 36.2°F2.3°C 30.9°F-0.6°C 81% 6.0 mph WSW9.7 kmh WSW 17.0 mph27.4 kmh 29.68 in1005.1 mb 0.00 in0.0 mm 0.00 in0.0 mm 0.01 in0.3 mm
12:20 PM 36.2°F2.3°C 30.6°F-0.8°C 80% 8.0 mph SW12.9 kmh SW 17.0 mph27.4 kmh 29.68 in1005.1 mb 0.00 in0.0 mm 0.00 in0.0 mm 0.01 in0.3 mm
12:25 PM 35.8°F2.1°C 30.2°F-1.0°C 80% 10.0 mph WSW16.1 kmh WSW 18.0 mph29.0 kmh 29.68 in1005.1 mb 0.00 in0.0 mm 0.00 in0.0 mm 0.01 in0.3 mm
12:30 PM 35.6°F2.0°C 29.7°F-1.3°C 79% 8.0 mph WSW12.9 kmh WSW 18.0 mph29.0 kmh 29.68 in1005.1 mb 0.00 in0.0 mm 0.00 in0.0 mm 0.01 in0.3 mm
12:35 PM 35.4°F1.9°C 29.5°F-1.4°C 79% 12.0 mph WSW19.3 kmh WSW 21.0 mph33.8 kmh 29.68 in1005.1 mb 0.00 in0.0 mm 0.00 in0.0 mm 0.01 in0.3 mm
12:40 PM 35.2°F1.8°C 29.3°F-1.5°C 79% 12.0 mph WSW19.3 kmh WSW 22.0 mph35.4 kmh 29.68 in1005.1 mb 0.00 in0.0 mm 0.00 in0.0 mm 0.01 in0.3 mm
12:45 PM 35.1°F1.7°C 28.9°F-1.7°C 78% 8.0 mph WSW12.9 kmh WSW 24.0 mph38.6 kmh 29.68 in1005.1 mb 0.00 in0.0 mm 0.00 in0.0 mm 0.01 in0.3 mm
12:50 PM 35.0°F1.7°C 29.1°F-1.6°C 79% 10.0 mph WSW16.1 kmh WSW 24.0 mph38.6 kmh 29.68 in1005.1 mb 0.00 in0.0 mm 0.00 in0.0 mm 0.01 in0.3 mm
12:55 PM 35.1°F1.7°C 28.9°F-1.7°C 78% 5.0 mph WSW8.0 kmh WSW 24.0 mph38.6 kmh 29.68 in1005.1 mb 0.00 in0.0 mm 0.00 in0.0 mm 0.01 in0.3 mm
01:00 PM 35.3°F1.8°C 29.1°F-1.6°C 78% 7.0 mph WSW11.3 kmh WSW 24.0 mph38.6 kmh 29.68 in1005.1 mb 0.00 in0.0 mm 0.00 in0.0 mm 0.01 in0.3 mm
01:05 PM 35.3°F1.8°C 29.1°F-1.6°C 78% 9.0 mph SW14.5 kmh SW 18.0 mph29.0 kmh 29.69 in1005.4 mb 0.00 in0.0 mm 0.00 in0.0 mm 0.01 in0.3 mm
01:10 PM 35.0°F1.7°C 28.5°F-1.9°C 77% 7.0 mph WSW11.3 kmh WSW 18.0 mph29.0 kmh 29.69 in1005.4 mb 0.00 in0.0 mm 0.00 in0.0 mm 0.01 in0.3 mm
01:15 PM 34.8°F1.6°C 28.3°F-2.1°C 77% 5.0 mph SW8.0 kmh SW 17.0 mph27.4 kmh 29.69 in1005.4 mb 0.00 in0.0 mm 0.00 in0.0 mm 0.01 in0.3 mm
01:20 PM 34.7°F1.5°C 28.5°F-1.9°C 78% 5.0 mph SW8.0 kmh SW 17.0 mph27.4 kmh 29.69 in1005.4 mb 0.00 in0.0 mm 0.00 in0.0 mm 0.01 in0.3 mm
01:25 PM 34.6°F1.4°C 28.1°F-2.2°C 77% 14.0 mph WSW22.5 kmh WSW 23.0 mph37.0 kmh 29.69 in1005.4 mb 0.00 in0.0 mm 0.00 in0.0 mm 0.01 in0.3 mm
01:30 PM 34.6°F1.4°C 27.8°F-2.3°C 76% 8.0 mph WSW12.9 kmh WSW 23.0 mph37.0 kmh 29.69 in1005.4 mb 0.00 in0.0 mm 0.00 in0.0 mm 0.01 in0.3 mm
01:35 PM 34.9°F1.6°C 28.0°F-2.2°C 76% 6.0 mph WSW9.7 kmh WSW 23.0 mph37.0 kmh 29.69 in1005.4 mb 0.00 in0.0 mm 0.00 in0.0 mm 0.01 in0.3 mm
01:40 PM 35.1°F1.7°C 28.2°F-2.1°C 76% 9.0 mph WSW14.5 kmh WSW 23.0 mph37.0 kmh 29.69 in1005.4 mb 0.00 in0.0 mm 0.00 in0.0 mm 0.01 in0.3 mm
01:45 PM 35.1°F1.7°C 27.9°F-2.3°C 75% 7.0 mph SW11.3 kmh SW 21.0 mph33.8 kmh 29.69 in1005.4 mb 0.00 in0.0 mm 0.00 in0.0 mm 0.01 in0.3 mm
01:50 PM 34.9°F1.6°C 27.7°F-2.4°C 75% 11.0 mph SW17.7 kmh SW 21.0 mph33.8 kmh 29.69 in1005.4 mb 0.00 in0.0 mm 0.00 in0.0 mm 0.01 in0.3 mm
01:55 PM 35.0°F1.7°C 27.5°F-2.5°C 74% 5.0 mph SW8.0 kmh SW 17.0 mph27.4 kmh 29.70 in1005.8 mb 0.00 in0.0 mm 0.00 in0.0 mm 0.01 in0.3 mm
02:00 PM 35.0°F1.7°C 27.5°F-2.5°C 74% 8.0 mph SW12.9 kmh SW 17.0 mph27.4 kmh 29.69 in1005.4 mb 0.00 in0.0 mm 0.00 in0.0 mm 0.01 in0.3 mm
02:05 PM 35.0°F1.7°C 27.5°F-2.5°C 74% 10.0 mph WSW16.1 kmh WSW 24.0 mph38.6 kmh 29.70 in1005.8 mb 0.00 in0.0 mm 0.00 in0.0 mm 0.01 in0.3 mm
02:10 PM 34.8°F1.6°C 27.3°F-2.6°C 74% 8.0 mph WSW12.9 kmh WSW 24.0 mph38.6 kmh 29.70 in1005.8 mb 0.00 in0.0 mm 0.00 in0.0 mm 0.01 in0.3 mm
02:15 PM 34.6°F1.4°C 27.1°F-2.7°C 74% 9.0 mph W14.5 kmh W 24.0 mph38.6 kmh 29.70 in1005.8 mb 0.00 in0.0 mm 0.00 in0.0 mm 0.01 in0.3 mm
02:20 PM 34.5°F1.4°C 27.0°F-2.8°C 74% 12.0 mph WSW19.3 kmh WSW 24.0 mph38.6 kmh 29.70 in1005.8 mb 0.00 in0.0 mm 0.00 in0.0 mm 0.01 in0.3 mm
02:25 PM 34.5°F1.4°C 27.0°F-2.8°C 74% 8.0 mph SW12.9 kmh SW 19.0 mph30.6 kmh 29.70 in1005.8 mb 0.00 in0.0 mm 0.00 in0.0 mm 0.01 in0.3 mm
02:30 PM 34.5°F1.4°C 27.0°F-2.8°C 74% 7.0 mph SW11.3 kmh SW 19.0 mph30.6 kmh 29.70 in1005.8 mb 0.00 in0.0 mm 0.00 in0.0 mm 0.01 in0.3 mm
02:35 PM 34.6°F1.4°C 27.4°F-2.6°C 75% 6.0 mph WSW9.7 kmh WSW 18.0 mph29.0 kmh 29.70 in1005.8 mb 0.00 in0.0 mm 0.00 in0.0 mm 0.01 in0.3 mm
02:40 PM 34.6°F1.4°C 27.1°F-2.7°C 74% 7.0 mph SW11.3 kmh SW 18.0 mph29.0 kmh 29.71 in1006.1 mb 0.00 in0.0 mm 0.00 in0.0 mm 0.01 in0.3 mm
02:45 PM 34.5°F1.4°C 27.0°F-2.8°C 74% 11.0 mph WSW17.7 kmh WSW 15.0 mph24.1 kmh 29.70 in1005.8 mb 0.00 in0.0 mm 0.00 in0.0 mm 0.01 in0.3 mm
02:50 PM 34.5°F1.4°C 27.0°F-2.8°C 74% 3.0 mph WSW4.8 kmh WSW 15.0 mph24.1 kmh 29.70 in1005.8 mb 0.00 in0.0 mm 0.00 in0.0 mm 0.01 in0.3 mm
02:55 PM 34.5°F1.4°C 27.0°F-2.8°C 74% 6.0 mph WSW9.7 kmh WSW 13.0 mph20.9 kmh 29.70 in1005.8 mb 0.00 in0.0 mm 0.00 in0.0 mm 0.01 in0.3 mm
03:00 PM 34.5°F1.4°C 27.0°F-2.8°C 74% 7.0 mph SW11.3 kmh SW 15.0 mph24.1 kmh 29.71 in1006.1 mb 0.00 in0.0 mm 0.00 in0.0 mm 0.01 in0.3 mm
03:05 PM 34.5°F1.4°C 27.0°F-2.8°C 74% 8.0 mph WSW12.9 kmh WSW 18.0 mph29.0 kmh 29.71 in1006.1 mb 0.00 in0.0 mm 0.00 in0.0 mm 0.01 in0.3 mm
03:10 PM 34.5°F1.4°C 27.0°F-2.8°C 74% 7.0 mph SW11.3 kmh SW 20.0 mph32.2 kmh 29.71 in1006.1 mb 0.00 in0.0 mm 0.00 in0.0 mm 0.01 in0.3 mm
03:15 PM 34.4°F1.3°C 26.9°F-2.8°C 74% 6.0 mph WSW9.7 kmh WSW 20.0 mph32.2 kmh 29.70 in1005.8 mb 0.00 in0.0 mm 0.00 in0.0 mm 0.01 in0.3 mm
03:20 PM 34.4°F1.3°C 26.9°F-2.8°C 74% 6.0 mph SW9.7 kmh SW 20.0 mph32.2 kmh 29.71 in1006.1 mb 0.00 in0.0 mm 0.00 in0.0 mm 0.01 in0.3 mm
03:25 PM 34.4°F1.3°C 26.9°F-2.8°C 74% 6.0 mph WSW9.7 kmh WSW 20.0 mph32.2 kmh 29.70 in1005.8 mb 0.00 in0.0 mm 0.00 in0.0 mm 0.01 in0.3 mm
03:30 PM 34.4°F1.3°C 27.2°F-2.7°C 75% 8.0 mph WSW12.9 kmh WSW 19.0 mph30.6 kmh 29.70 in1005.8 mb 0.00 in0.0 mm 0.00 in0.0 mm 0.01 in0.3 mm
03:35 PM 34.6°F1.4°C 27.1°F-2.7°C 74% 7.0 mph SW11.3 kmh SW 19.0 mph30.6 kmh 29.71 in1006.1 mb 0.00 in0.0 mm 0.00 in0.0 mm 0.01 in0.3 mm
03:40 PM 34.8°F1.6°C 27.6°F-2.4°C 75% 8.0 mph WSW12.9 kmh WSW 19.0 mph30.6 kmh 29.71 in1006.1 mb 0.00 in0.0 mm 0.00 in0.0 mm 0.01 in0.3 mm
03:45 PM 34.7°F1.5°C 27.2°F-2.7°C 74% 8.0 mph SW12.9 kmh SW 19.0 mph30.6 kmh 29.71 in1006.1 mb 0.00 in0.0 mm 0.00 in0.0 mm 0.01 in0.3 mm
03:50 PM 34.6°F1.4°C 26.8°F-2.9°C 73% 6.0 mph WSW9.7 kmh WSW 17.0 mph27.4 kmh 29.71 in1006.1 mb 0.00 in0.0 mm 0.00 in0.0 mm 0.01 in0.3 mm
03:55 PM 34.7°F1.5°C 27.2°F-2.7°C 74% 6.0 mph SSW9.7 kmh SSW 17.0 mph27.4 kmh 29.71 in1006.1 mb 0.00 in0.0 mm 0.00 in0.0 mm 0.01 in0.3 mm
04:00 PM 34.8°F1.6°C 27.3°F-2.6°C 74% 6.0 mph SW9.7 kmh SW 16.0 mph25.7 kmh 29.71 in1006.1 mb 0.00 in0.0 mm 0.00 in0.0 mm 0.01 in0.3 mm
04:05 PM 34.8°F1.6°C 27.3°F-2.6°C 74% 9.0 mph SW14.5 kmh SW 16.0 mph25.7 kmh 29.71 in1006.1 mb 0.00 in0.0 mm 0.00 in0.0 mm 0.01 in0.3 mm
04:10 PM 34.8°F1.6°C 27.3°F-2.6°C 74% 10.0 mph WSW16.1 kmh WSW 15.0 mph24.1 kmh 29.72 in1006.4 mb 0.00 in0.0 mm 0.00 in0.0 mm 0.01 in0.3 mm
04:15 PM 34.8°F1.6°C 27.3°F-2.6°C 74% 11.0 mph W17.7 kmh W 15.0 mph24.1 kmh 29.72 in1006.4 mb 0.00 in0.0 mm 0.00 in0.0 mm 0.01 in0.3 mm
04:20 PM 34.9°F1.6°C 27.4°F-2.6°C 74% 8.0 mph WSW12.9 kmh WSW 14.0 mph22.5 kmh 29.72 in1006.4 mb 0.00 in0.0 mm 0.00 in0.0 mm 0.01 in0.3 mm
04:25 PM 34.9°F1.6°C 27.0°F-2.8°C 73% 9.0 mph WSW14.5 kmh WSW 15.0 mph24.1 kmh 29.73 in1006.8 mb 0.00 in0.0 mm 0.00 in0.0 mm 0.01 in0.3 mm
04:30 PM 34.9°F1.6°C 27.0°F-2.8°C 73% 4.0 mph SW6.4 kmh SW 15.0 mph24.1 kmh 29.73 in1006.8 mb 0.00 in0.0 mm 0.00 in0.0 mm 0.01 in0.3 mm
04:35 PM 34.8°F1.6°C 26.9°F-2.8°C 73% 10.0 mph WSW16.1 kmh WSW 20.0 mph32.2 kmh 29.73 in1006.8 mb 0.00 in0.0 mm 0.00 in0.0 mm 0.01 in0.3 mm
04:40 PM 34.8°F1.6°C 26.9°F-2.8°C 73% 13.0 mph WSW20.9 kmh WSW 21.0 mph33.8 kmh 29.73 in1006.8 mb 0.00 in0.0 mm 0.00 in0.0 mm 0.01 in0.3 mm
04:45 PM 34.7°F1.5°C 26.5°F-3.1°C 72% 10.0 mph WSW16.1 kmh WSW 21.0 mph33.8 kmh 29.73 in1006.8 mb 0.00 in0.0 mm 0.00 in0.0 mm 0.01 in0.3 mm
04:50 PM 34.6°F1.4°C 26.8°F-2.9°C 73% 6.0 mph WSW9.7 kmh WSW 23.0 mph37.0 kmh 29.73 in1006.8 mb 0.00 in0.0 mm 0.00 in0.0 mm 0.01 in0.3 mm
04:55 PM 34.6°F1.4°C 26.4°F-3.1°C 72% 13.0 mph WSW20.9 kmh WSW 23.0 mph37.0 kmh 29.73 in1006.8 mb 0.00 in0.0 mm 0.00 in0.0 mm 0.01 in0.3 mm
05:00 PM 34.6°F1.4°C 26.4°F-3.1°C 72% 9.0 mph SW14.5 kmh SW 23.0 mph37.0 kmh 29.73 in1006.8 mb 0.00 in0.0 mm 0.00 in0.0 mm 0.01 in0.3 mm
05:05 PM 34.6°F1.4°C 26.4°F-3.1°C 72% 6.0 mph W9.7 kmh W 23.0 mph37.0 kmh 29.74 in1007.1 mb 0.00 in0.0 mm 0.00 in0.0 mm 0.01 in0.3 mm
05:10 PM 34.6°F1.4°C 26.4°F-3.1°C 72% 6.0 mph WSW9.7 kmh WSW 15.0 mph24.1 kmh 29.74 in1007.1 mb 0.00 in0.0 mm 0.00 in0.0 mm 0.01 in0.3 mm
05:15 PM 34.6°F1.4°C 26.4°F-3.1°C 72% 10.0 mph SW16.1 kmh SW 15.0 mph24.1 kmh 29.74 in1007.1 mb 0.00 in0.0 mm 0.00 in0.0 mm 0.01 in0.3 mm
05:20 PM 34.6°F1.4°C 26.4°F-3.1°C 72% 10.0 mph SW16.1 kmh SW 16.0 mph25.7 kmh 29.74 in1007.1 mb 0.00 in0.0 mm 0.00 in0.0 mm 0.01 in0.3 mm
05:25 PM 34.6°F1.4°C 26.4°F-3.1°C 72% 9.0 mph WSW14.5 kmh WSW 17.0 mph27.4 kmh 29.74 in1007.1 mb 0.00 in0.0 mm 0.00 in0.0 mm 0.01 in0.3 mm
05:30 PM 34.7°F1.5°C 26.5°F-3.1°C 72% 6.0 mph WNW9.7 kmh WNW 17.0 mph27.4 kmh 29.75 in1007.5 mb 0.00 in0.0 mm 0.00 in0.0 mm 0.01 in0.3 mm
05:35 PM 34.7°F1.5°C 26.5°F-3.1°C 72% 8.0 mph WSW12.9 kmh WSW 17.0 mph27.4 kmh 29.74 in1007.1 mb 0.00 in0.0 mm 0.00 in0.0 mm 0.01 in0.3 mm
05:40 PM 34.7°F1.5°C 26.5°F-3.1°C 72% 6.0 mph WSW9.7 kmh WSW 17.0 mph27.4 kmh 29.75 in1007.5 mb 0.00 in0.0 mm 0.00 in0.0 mm 0.01 in0.3 mm
05:45 PM 34.7°F1.5°C 26.5°F-3.1°C 72% 7.0 mph WSW11.3 kmh WSW 14.0 mph22.5 kmh 29.75 in1007.5 mb 0.00 in0.0 mm 0.00 in0.0 mm 0.01 in0.3 mm
05:50 PM 34.8°F1.6°C 26.6°F-3.0°C 72% 6.0 mph WSW9.7 kmh WSW 21.0 mph33.8 kmh 29.75 in1007.5 mb 0.00 in0.0 mm 0.00 in0.0 mm 0.01 in0.3 mm
05:55 PM 34.8°F1.6°C 26.6°F-3.0°C 72% 8.0 mph WSW12.9 kmh WSW 21.0 mph33.8 kmh 29.75 in1007.5 mb 0.00 in0.0 mm 0.00 in0.0 mm 0.01 in0.3 mm
06:00 PM 34.8°F1.6°C 26.6°F-3.0°C 72% 12.0 mph W19.3 kmh W 21.0 mph33.8 kmh 29.75 in1007.5 mb 0.00 in0.0 mm 0.00 in0.0 mm 0.01 in0.3 mm
06:05 PM 34.8°F1.6°C 26.6°F-3.0°C 72% 20.0 mph WSW32.2 kmh WSW 23.0 mph37.0 kmh 29.75 in1007.5 mb 0.00 in0.0 mm 0.00 in0.0 mm 0.01 in0.3 mm
06:10 PM 34.8°F1.6°C 26.6°F-3.0°C 72% 5.0 mph WSW8.0 kmh WSW 23.0 mph37.0 kmh 29.75 in1007.5 mb 0.00 in0.0 mm 0.00 in0.0 mm 0.01 in0.3 mm
06:15 PM 34.8°F1.6°C 26.9°F-2.8°C 73% 10.0 mph WSW16.1 kmh WSW 23.0 mph37.0 kmh 29.75 in1007.5 mb 0.00 in0.0 mm 0.00 in0.0 mm 0.01 in0.3 mm
06:20 PM 34.8°F1.6°C 26.9°F-2.8°C 73% 6.0 mph WSW9.7 kmh WSW 23.0 mph37.0 kmh 29.75 in1007.5 mb 0.00 in0.0 mm 0.00 in0.0 mm 0.01 in0.3 mm
06:25 PM 34.8°F1.6°C 27.3°F-2.6°C 74% 7.0 mph SW11.3 kmh SW 15.0 mph24.1 kmh 29.75 in1007.5 mb 0.00 in0.0 mm 0.00 in0.0 mm 0.01 in0.3 mm
06:30 PM 34.8°F1.6°C 27.3°F-2.6°C 74% 8.0 mph WSW12.9 kmh WSW 15.0 mph24.1 kmh 29.75 in1007.5 mb 0.00 in0.0 mm 0.00 in0.0 mm 0.01 in0.3 mm
06:35 PM 34.7°F1.5°C 27.2°F-2.7°C 74% 8.0 mph W12.9 kmh W 17.0 mph27.4 kmh 29.75 in1007.5 mb 0.00 in0.0 mm 0.00 in0.0 mm 0.01 in0.3 mm
06:40 PM 34.7°F1.5°C 27.2°F-2.7°C 74% 6.0 mph SW9.7 kmh SW 17.0 mph27.4 kmh 29.75 in1007.5 mb 0.00 in0.0 mm 0.00 in0.0 mm 0.01 in0.3 mm
06:45 PM 34.7°F1.5°C 27.5°F-2.5°C 75% 8.0 mph WSW12.9 kmh WSW 17.0 mph27.4 kmh 29.75 in1007.5 mb 0.00 in0.0 mm 0.00 in0.0 mm 0.01 in0.3 mm
06:50 PM 34.7°F1.5°C 27.2°F-2.7°C 74% 12.0 mph WSW19.3 kmh WSW 17.0 mph27.4 kmh 29.76 in1007.8 mb 0.00 in0.0 mm 0.00 in0.0 mm 0.01 in0.3 mm
06:55 PM 34.7°F1.5°C 27.5°F-2.5°C 75% 7.0 mph WSW11.3 kmh WSW 16.0 mph25.7 kmh 29.76 in1007.8 mb 0.00 in0.0 mm 0.00 in0.0 mm 0.01 in0.3 mm
07:00 PM 34.7°F1.5°C 27.5°F-2.5°C 75% 6.0 mph SW9.7 kmh SW 16.0 mph25.7 kmh 29.76 in1007.8 mb 0.00 in0.0 mm 0.00 in0.0 mm 0.01 in0.3 mm
07:05 PM 34.7°F1.5°C 27.2°F-2.7°C 74% 8.0 mph SW12.9 kmh SW 19.0 mph30.6 kmh 29.76 in1007.8 mb 0.00 in0.0 mm 0.00 in0.0 mm 0.01 in0.3 mm
07:10 PM 34.7°F1.5°C 27.2°F-2.7°C 74% 6.0 mph WSW9.7 kmh WSW 19.0 mph30.6 kmh 29.76 in1007.8 mb 0.00 in0.0 mm 0.00 in0.0 mm 0.01 in0.3 mm
07:15 PM 34.7°F1.5°C 27.2°F-2.7°C 74% 11.0 mph SW17.7 kmh SW 19.0 mph30.6 kmh 29.76 in1007.8 mb 0.00 in0.0 mm 0.00 in0.0 mm 0.01 in0.3 mm
07:20 PM 34.6°F1.4°C 27.1°F-2.7°C 74% 8.0 mph W12.9 kmh W 19.0 mph30.6 kmh 29.76 in1007.8 mb 0.00 in0.0 mm 0.00 in0.0 mm 0.01 in0.3 mm
07:25 PM 34.6°F1.4°C 27.1°F-2.7°C 74% 7.0 mph SW11.3 kmh SW 17.0 mph27.4 kmh 29.76 in1007.8 mb 0.00 in0.0 mm 0.00 in0.0 mm 0.01 in0.3 mm
07:30 PM 34.6°F1.4°C 27.1°F-2.7°C 74% 6.0 mph SW9.7 kmh SW 17.0 mph27.4 kmh 29.76 in1007.8 mb 0.00 in0.0 mm 0.00 in0.0 mm 0.01 in0.3 mm
07:35 PM 34.6°F1.4°C 27.1°F-2.7°C 74% 5.0 mph WSW8.0 kmh WSW 17.0 mph27.4 kmh 29.76 in1007.8 mb 0.00 in0.0 mm 0.00 in0.0 mm 0.01 in0.3 mm
07:40 PM 34.6°F1.4°C 27.4°F-2.6°C 75% 10.0 mph SW16.1 kmh SW 17.0 mph27.4 kmh 29.76 in1007.8 mb 0.00 in0.0 mm 0.00 in0.0 mm 0.01 in0.3 mm
07:45 PM 34.6°F1.4°C 27.4°F-2.6°C 75% 8.0 mph WSW12.9 kmh WSW 16.0 mph25.7 kmh 29.77 in1008.1 mb 0.00 in0.0 mm 0.00 in0.0 mm 0.01 in0.3 mm
07:50 PM 34.6°F1.4°C 27.4°F-2.6°C 75% 11.0 mph SW17.7 kmh SW 16.0 mph25.7 kmh 29.77 in1008.1 mb 0.00 in0.0 mm 0.00 in0.0 mm 0.01 in0.3 mm
07:55 PM 34.6°F1.4°C 27.4°F-2.6°C 75% 6.0 mph WSW9.7 kmh WSW 16.0 mph25.7 kmh 29.77 in1008.1 mb 0.00 in0.0 mm 0.00 in0.0 mm 0.01 in0.3 mm
08:00 PM 34.6°F1.4°C 27.4°F-2.6°C 75% 7.0 mph SW11.3 kmh SW 16.0 mph25.7 kmh 29.77 in1008.1 mb 0.00 in0.0 mm 0.00 in0.0 mm 0.01 in0.3 mm
08:05 PM 34.7°F1.5°C 27.5°F-2.5°C 75% 6.0 mph WSW9.7 kmh WSW 17.0 mph27.4 kmh 29.77 in1008.1 mb 0.00 in0.0 mm 0.00 in0.0 mm 0.01 in0.3 mm
08:10 PM 34.6°F1.4°C 27.4°F-2.6°C 75% 8.0 mph WSW12.9 kmh WSW 17.0 mph27.4 kmh 29.77 in1008.1 mb 0.00 in0.0 mm 0.00 in0.0 mm 0.01 in0.3 mm
08:15 PM 34.7°F1.5°C 27.5°F-2.5°C 75% 11.0 mph SSW17.7 kmh SSW 20.0 mph32.2 kmh 29.77 in1008.1 mb 0.00 in0.0 mm 0.00 in0.0 mm 0.01 in0.3 mm
08:20 PM 34.6°F1.4°C 27.4°F-2.6°C 75% 17.0 mph WSW27.4 kmh WSW 20.0 mph32.2 kmh 29.78 in1008.5 mb 0.00 in0.0 mm 0.00 in0.0 mm 0.01 in0.3 mm
08:25 PM 34.6°F1.4°C 27.1°F-2.7°C 74% 11.0 mph SW17.7 kmh SW 20.0 mph32.2 kmh 29.78 in1008.5 mb 0.00 in0.0 mm 0.00 in0.0 mm 0.01 in0.3 mm
08:30 PM 34.6°F1.4°C 27.1°F-2.7°C 74% 5.0 mph WSW8.0 kmh WSW 20.0 mph32.2 kmh 29.78 in1008.5 mb 0.00 in0.0 mm 0.00 in0.0 mm 0.01 in0.3 mm
08:35 PM 34.6°F1.4°C 27.1°F-2.7°C 74% 8.0 mph WSW12.9 kmh WSW 17.0 mph27.4 kmh 29.78 in1008.5 mb 0.00 in0.0 mm 0.00 in0.0 mm 0.01 in0.3 mm
08:40 PM 34.6°F1.4°C 27.1°F-2.7°C 74% 5.0 mph WSW8.0 kmh WSW 17.0 mph27.4 kmh 29.78 in1008.5 mb 0.00 in0.0 mm 0.00 in0.0 mm 0.01 in0.3 mm
08:45 PM 34.5°F1.4°C 27.0°F-2.8°C 74% 15.0 mph WSW24.1 kmh WSW 17.0 mph27.4 kmh 29.78 in1008.5 mb 0.00 in0.0 mm 0.00 in0.0 mm 0.01 in0.3 mm
08:50 PM 34.5°F1.4°C 27.0°F-2.8°C 74% 6.0 mph W9.7 kmh W 17.0 mph27.4 kmh 29.78 in1008.5 mb 0.00 in0.0 mm 0.00 in0.0 mm 0.01 in0.3 mm
08:55 PM 34.5°F1.4°C 26.7°F-2.9°C 73% 9.0 mph WSW14.5 kmh WSW 25.0 mph40.2 kmh 29.78 in1008.5 mb 0.00 in0.0 mm 0.00 in0.0 mm 0.01 in0.3 mm
09:00 PM 34.5°F1.4°C 26.7°F-2.9°C 73% 9.0 mph WSW14.5 kmh WSW 25.0 mph40.2 kmh 29.78 in1008.5 mb 0.00 in0.0 mm 0.00 in0.0 mm 0.01 in0.3 mm
09:05 PM 34.5°F1.4°C 27.0°F-2.8°C 74% 13.0 mph WSW20.9 kmh WSW 25.0 mph40.2 kmh 29.78 in1008.5 mb 0.00 in0.0 mm 0.00 in0.0 mm 0.01 in0.3 mm
09:10 PM 34.4°F1.3°C 26.9°F-2.8°C 74% 11.0 mph WSW17.7 kmh WSW 25.0 mph40.2 kmh 29.78 in1008.5 mb 0.00 in0.0 mm 0.00 in0.0 mm 0.01 in0.3 mm
09:15 PM 34.3°F1.3°C 26.8°F-2.9°C 74% 9.0 mph SW14.5 kmh SW 17.0 mph27.4 kmh 29.79 in1008.8 mb 0.00 in0.0 mm 0.00 in0.0 mm 0.01 in0.3 mm
09:20 PM 34.2°F1.2°C 27.0°F-2.8°C 75% 6.0 mph WSW9.7 kmh WSW 17.0 mph27.4 kmh 29.79 in1008.8 mb 0.00 in0.0 mm 0.00 in0.0 mm 0.01 in0.3 mm
09:25 PM 34.1°F1.2°C 26.9°F-2.8°C 75% 9.0 mph WSW14.5 kmh WSW 19.0 mph30.6 kmh 29.79 in1008.8 mb 0.00 in0.0 mm 0.00 in0.0 mm 0.01 in0.3 mm
09:30 PM 34.0°F1.1°C 26.9°F-2.8°C 75% 18.0 mph WSW29.0 kmh WSW 19.0 mph30.6 kmh 29.79 in1008.8 mb 0.00 in0.0 mm 0.00 in0.0 mm 0.01 in0.3 mm
09:35 PM 33.9°F1.1°C 26.8°F-2.9°C 75% 10.0 mph WSW16.1 kmh WSW 19.0 mph30.6 kmh 29.79 in1008.8 mb 0.00 in0.0 mm 0.00 in0.0 mm 0.01 in0.3 mm
09:40 PM 33.8°F1.0°C 26.7°F-2.9°C 75% 9.0 mph SW14.5 kmh SW 19.0 mph30.6 kmh 29.79 in1008.8 mb 0.00 in0.0 mm 0.00 in0.0 mm 0.01 in0.3 mm
09:45 PM 33.7°F0.9°C 26.9°F-2.8°C 76% 6.0 mph W9.7 kmh W 17.0 mph27.4 kmh 29.79 in1008.8 mb 0.00 in0.0 mm 0.00 in0.0 mm 0.01 in0.3 mm
09:50 PM 33.6°F0.9°C 27.1°F-2.7°C 77% 6.0 mph WSW9.7 kmh WSW 17.0 mph27.4 kmh 29.79 in1008.8 mb 0.00 in0.0 mm 0.00 in0.0 mm 0.01 in0.3 mm
09:55 PM 33.6°F0.9°C 27.1°F-2.7°C 77% 8.0 mph WSW12.9 kmh WSW 17.0 mph27.4 kmh 29.79 in1008.8 mb 0.00 in0.0 mm 0.00 in0.0 mm 0.01 in0.3 mm
10:00 PM 33.5°F0.8°C 27.3°F-2.6°C 78% 7.0 mph SW11.3 kmh SW 20.0 mph32.2 kmh 29.79 in1008.8 mb 0.00 in0.0 mm 0.00 in0.0 mm 0.01 in0.3 mm
10:05 PM 33.4°F0.8°C 27.2°F-2.7°C 78% 7.0 mph WSW11.3 kmh WSW 20.0 mph32.2 kmh 29.79 in1008.8 mb 0.00 in0.0 mm 0.00 in0.0 mm 0.01 in0.3 mm
10:10 PM 33.3°F0.7°C 27.5°F-2.5°C 79% 8.0 mph W12.9 kmh W 20.0 mph32.2 kmh 29.79 in1008.8 mb 0.00 in0.0 mm 0.00 in0.0 mm 0.01 in0.3 mm
10:15 PM 33.2°F0.7°C 27.4°F-2.6°C 79% 13.0 mph WSW20.9 kmh WSW 20.0 mph32.2 kmh 29.79 in1008.8 mb 0.00 in0.0 mm 0.00 in0.0 mm 0.01 in0.3 mm
10:20 PM 33.1°F0.6°C 27.6°F-2.4°C 80% 8.0 mph W12.9 kmh W 20.0 mph32.2 kmh 29.79 in1008.8 mb 0.00 in0.0 mm 0.00 in0.0 mm 0.01 in0.3 mm
10:25 PM 33.0°F0.6°C 27.8°F-2.3°C 81% 5.0 mph W8.0 kmh W 20.0 mph32.2 kmh 29.79 in1008.8 mb 0.00 in0.0 mm 0.00 in0.0 mm 0.01 in0.3 mm
10:30 PM 32.9°F0.5°C 27.7°F-2.4°C 81% 11.0 mph SW17.7 kmh SW 20.0 mph32.2 kmh 29.79 in1008.8 mb 0.00 in0.0 mm 0.00 in0.0 mm 0.01 in0.3 mm
10:35 PM 32.9°F0.5°C 27.7°F-2.4°C 81% 3.0 mph SW4.8 kmh SW 18.0 mph29.0 kmh 29.80 in1009.1 mb 0.00 in0.0 mm 0.00 in0.0 mm 0.01 in0.3 mm
10:40 PM 32.9°F0.5°C 27.7°F-2.4°C 81% 10.0 mph WSW16.1 kmh WSW 18.0 mph29.0 kmh 29.79 in1008.8 mb 0.00 in0.0 mm 0.00 in0.0 mm 0.01 in0.3 mm
10:45 PM 32.8°F0.4°C 27.6°F-2.4°C 81% 10.0 mph W16.1 kmh W 18.0 mph29.0 kmh 29.79 in1008.8 mb 0.00 in0.0 mm 0.00 in0.0 mm 0.01 in0.3 mm
10:50 PM 32.9°F0.5°C 27.7°F-2.4°C 81% 10.0 mph WSW16.1 kmh WSW 18.0 mph29.0 kmh 29.79 in1008.8 mb 0.00 in0.0 mm 0.00 in0.0 mm 0.01 in0.3 mm
10:55 PM 32.8°F0.4°C 27.6°F-2.4°C 81% 9.0 mph SW14.5 kmh SW 22.0 mph35.4 kmh 29.80 in1009.1 mb 0.00 in0.0 mm 0.00 in0.0 mm 0.01 in0.3 mm
11:00 PM 32.8°F0.4°C 27.6°F-2.4°C 81% 10.0 mph WSW16.1 kmh WSW 22.0 mph35.4 kmh 29.80 in1009.1 mb 0.00 in0.0 mm 0.00 in0.0 mm 0.00 in0.0 mm
11:05 PM 32.7°F0.4°C 27.5°F-2.5°C 81% 9.0 mph W14.5 kmh W 22.0 mph35.4 kmh 29.80 in1009.1 mb 0.00 in0.0 mm 0.00 in0.0 mm 0.00 in0.0 mm
11:10 PM 32.7°F0.4°C 27.5°F-2.5°C 81% 6.0 mph WSW9.7 kmh WSW 22.0 mph35.4 kmh 29.80 in1009.1 mb 0.00 in0.0 mm 0.00 in0.0 mm 0.00 in0.0 mm
11:15 PM 32.7°F0.4°C 27.5°F-2.5°C 81% 13.0 mph WSW20.9 kmh WSW 19.0 mph30.6 kmh 29.80 in1009.1 mb 0.00 in0.0 mm 0.00 in0.0 mm 0.00 in0.0 mm
11:20 PM 32.7°F0.4°C 27.5°F-2.5°C 81% 13.0 mph WSW20.9 kmh WSW 19.0 mph30.6 kmh 29.80 in1009.1 mb 0.00 in0.0 mm 0.00 in0.0 mm 0.00 in0.0 mm
11:25 PM 32.6°F0.3°C 27.4°F-2.6°C 81% 11.0 mph WSW17.7 kmh WSW 19.0 mph30.6 kmh 29.80 in1009.1 mb 0.00 in0.0 mm 0.00 in0.0 mm 0.00 in0.0 mm
11:30 PM 32.7°F0.4°C 27.5°F-2.5°C 81% 12.0 mph W19.3 kmh W 22.0 mph35.4 kmh 29.80 in1009.1 mb 0.00 in0.0 mm 0.00 in0.0 mm 0.00 in0.0 mm
11:35 PM 32.7°F0.4°C 27.5°F-2.5°C 81% 16.0 mph WSW25.7 kmh WSW 23.0 mph37.0 kmh 29.80 in1009.1 mb 0.00 in0.0 mm 0.00 in0.0 mm 0.00 in0.0 mm
11:40 PM 32.7°F0.4°C 27.5°F-2.5°C 81% 13.0 mph WSW20.9 kmh WSW 23.0 mph37.0 kmh 29.80 in1009.1 mb 0.00 in0.0 mm 0.00 in0.0 mm 0.00 in0.0 mm
11:45 PM 32.7°F0.4°C 27.2°F-2.7°C 80% 19.0 mph W30.6 kmh W 23.0 mph37.0 kmh 29.80 in1009.1 mb 0.00 in0.0 mm 0.00 in0.0 mm 0.00 in0.0 mm
11:50 PM 32.7°F0.4°C 27.2°F-2.7°C 80% 18.0 mph WNW29.0 kmh WNW 23.0 mph37.0 kmh 29.80 in1009.1 mb 0.00 in0.0 mm 0.00 in0.0 mm 0.00 in0.0 mm
11:55 PM 32.7°F0.4°C 27.2°F-2.7°C 80% 14.0 mph SW22.5 kmh SW 23.0 mph37.0 kmh 29.80 in1009.1 mb 0.00 in0.0 mm 0.00 in0.0 mm 0.00 in0.0 mm